sensor_id;sensor_type;location;lat;lon;timestamp;temperature;humidity
12967;DHT22;6548;49.996;8.238;2022-08-19T00:01:42;21.80;99.90
12967;DHT22;6548;49.996;8.238;2022-08-19T00:04:13;21.40;99.90
12967;DHT22;6548;49.996;8.238;2022-08-19T00:06:41;21.40;99.90
12967;DHT22;6548;49.996;8.238;2022-08-19T00:09:08;21.40;99.90
12967;DHT22;6548;49.996;8.238;2022-08-19T00:11:35;21.40;99.90
12967;DHT22;6548;49.996;8.238;2022-08-19T00:14:04;21.90;99.90
12967;DHT22;6548;49.996;8.238;2022-08-19T00:16:30;21.40;99.90
12967;DHT22;6548;49.996;8.238;2022-08-19T00:18:56;21.60;99.90
12967;DHT22;6548;49.996;8.238;2022-08-19T00:21:23;21.70;99.90
12967;DHT22;6548;49.996;8.238;2022-08-19T00:23:48;21.30;99.90
12967;DHT22;6548;49.996;8.238;2022-08-19T00:26:14;21.40;99.90
12967;DHT22;6548;49.996;8.238;2022-08-19T00:28:40;21.80;99.90
12967;DHT22;6548;49.996;8.238;2022-08-19T00:31:08;21.40;99.90
12967;DHT22;6548;49.996;8.238;2022-08-19T00:33:34;21.60;99.90
12967;DHT22;6548;49.996;8.238;2022-08-19T00:36:08;21.30;99.90
12967;DHT22;6548;49.996;8.238;2022-08-19T00:38:35;21.30;99.90
12967;DHT22;6548;49.996;8.238;2022-08-19T00:41:01;21.30;99.90
12967;DHT22;6548;49.996;8.238;2022-08-19T00:43:27;21.40;99.90
12967;DHT22;6548;49.996;8.238;2022-08-19T00:45:53;21.30;99.90
12967;DHT22;6548;49.996;8.238;2022-08-19T00:48:20;21.30;99.90
12967;DHT22;6548;49.996;8.238;2022-08-19T00:50:48;21.30;99.90
12967;DHT22;6548;49.996;8.238;2022-08-19T00:53:15;21.70;99.90
12967;DHT22;6548;49.996;8.238;2022-08-19T00:55:45;21.40;99.90
12967;DHT22;6548;49.996;8.238;2022-08-19T00:58:14;21.30;99.90
12967;DHT22;6548;49.996;8.238;2022-08-19T01:00:40;21.30;99.90
12967;DHT22;6548;49.996;8.238;2022-08-19T01:03:14;21.90;99.90
12967;DHT22;6548;49.996;8.238;2022-08-19T01:05:42;21.20;99.90
12967;DHT22;6548;49.996;8.238;2022-08-19T01:08:08;21.20;99.90
12967;DHT22;6548;49.996;8.238;2022-08-19T01:10:40;21.20;99.90
12967;DHT22;6548;49.996;8.238;2022-08-19T01:13:07;21.20;99.90
12967;DHT22;6548;49.996;8.238;2022-08-19T01:15:40;21.80;99.90
12967;DHT22;6548;49.996;8.238;2022-08-19T01:18:10;21.30;99.90
12967;DHT22;6548;49.996;8.238;2022-08-19T01:20:36;21.30;99.90
12967;DHT22;6548;49.996;8.238;2022-08-19T01:23:02;21.20;99.90
12967;DHT22;6548;49.996;8.238;2022-08-19T01:25:32;21.10;99.90
12967;DHT22;6548;49.996;8.238;2022-08-19T01:27:59;21.10;99.90
12967;DHT22;6548;49.996;8.238;2022-08-19T01:30:28;21.10;99.90
12967;DHT22;6548;49.996;8.238;2022-08-19T01:32:55;21.10;99.90
12967;DHT22;6548;49.996;8.238;2022-08-19T01:35:22;21.20;99.90
12967;DHT22;6548;49.996;8.238;2022-08-19T01:37:55;21.00;99.90
12967;DHT22;6548;49.996;8.238;2022-08-19T01:40:24;21.30;99.90
12967;DHT22;6548;49.996;8.238;2022-08-19T01:42:51;21.00;99.90
12967;DHT22;6548;49.996;8.238;2022-08-19T01:45:19;21.00;99.90
12967;DHT22;6548;49.996;8.238;2022-08-19T01:47:46;21.00;99.90
12967;DHT22;6548;49.996;8.238;2022-08-19T01:50:12;21.00;99.90
12967;DHT22;6548;49.996;8.238;2022-08-19T01:52:39;21.00;99.90
12967;DHT22;6548;49.996;8.238;2022-08-19T01:55:08;21.00;99.90
12967;DHT22;6548;49.996;8.238;2022-08-19T01:57:34;21.00;99.90
12967;DHT22;6548;49.996;8.238;2022-08-19T02:00:00;22.00;99.90
12967;DHT22;6548;49.996;8.238;2022-08-19T02:02:27;21.20;99.90
12967;DHT22;6548;49.996;8.238;2022-08-19T02:04:53;21.00;99.90
12967;DHT22;6548;49.996;8.238;2022-08-19T02:07:20;21.00;99.90
12967;DHT22;6548;49.996;8.238;2022-08-19T02:09:47;20.90;99.90
12967;DHT22;6548;49.996;8.238;2022-08-19T02:12:14;20.90;99.90
12967;DHT22;6548;49.996;8.238;2022-08-19T02:14:40;21.00;99.90
12967;DHT22;6548;49.996;8.238;2022-08-19T02:17:05;21.10;99.90
12967;DHT22;6548;49.996;8.238;2022-08-19T02:19:31;22.00;99.90
12967;DHT22;6548;49.996;8.238;2022-08-19T02:21:58;21.80;99.90
12967;DHT22;6548;49.996;8.238;2022-08-19T02:24:25;20.90;99.90
12967;DHT22;6548;49.996;8.238;2022-08-19T02:26:51;21.50;99.90
12967;DHT22;6548;49.996;8.238;2022-08-19T02:29:16;20.90;99.90
12967;DHT22;6548;49.996;8.238;2022-08-19T02:31:42;20.90;99.90
12967;DHT22;6548;49.996;8.238;2022-08-19T02:34:08;21.30;99.90
12967;DHT22;6548;49.996;8.238;2022-08-19T02:36:33;20.80;99.90
12967;DHT22;6548;49.996;8.238;2022-08-19T02:38:59;20.80;99.90
12967;DHT22;6548;49.996;8.238;2022-08-19T02:41:28;20.80;99.90
12967;DHT22;6548;49.996;8.238;2022-08-19T02:43:59;20.70;99.90
12967;DHT22;6548;49.996;8.238;2022-08-19T02:46:28;20.70;99.90
12967;DHT22;6548;49.996;8.238;2022-08-19T02:48:56;21.60;99.90
12967;DHT22;6548;49.996;8.238;2022-08-19T02:51:25;20.50;99.90
12967;DHT22;6548;49.996;8.238;2022-08-19T02:53:52;21.00;99.90
12967;DHT22;6548;49.996;8.238;2022-08-19T02:56:18;21.30;99.90
12967;DHT22;6548;49.996;8.238;2022-08-19T02:58:44;20.40;99.90
12967;DHT22;6548;49.996;8.238;2022-08-19T03:01:10;21.10;99.90
12967;DHT22;6548;49.996;8.238;2022-08-19T03:03:37;20.30;99.90
12967;DHT22;6548;49.996;8.238;2022-08-19T03:06:07;21.10;99.90
12967;DHT22;6548;49.996;8.238;2022-08-19T03:08:34;20.30;99.90
12967;DHT22;6548;49.996;8.238;2022-08-19T03:11:00;20.20;99.90
12967;DHT22;6548;49.996;8.238;2022-08-19T03:13:25;20.20;99.90
12967;DHT22;6548;49.996;8.238;2022-08-19T03:15:51;20.40;99.90
12967;DHT22;6548;49.996;8.238;2022-08-19T03:18:17;20.10;99.90
12967;DHT22;6548;49.996;8.238;2022-08-19T03:20:44;20.00;99.90
12967;DHT22;6548;49.996;8.238;2022-08-19T03:23:11;20.10;99.90
12967;DHT22;6548;49.996;8.238;2022-08-19T03:25:43;19.90;99.90
12967;DHT22;6548;49.996;8.238;2022-08-19T03:28:10;20.30;99.90
12967;DHT22;6548;49.996;8.238;2022-08-19T03:30:37;20.90;99.90
12967;DHT22;6548;49.996;8.238;2022-08-19T03:33:05;19.90;99.90
12967;DHT22;6548;49.996;8.238;2022-08-19T03:35:30;19.90;99.90
12967;DHT22;6548;49.996;8.238;2022-08-19T03:37:58;19.90;99.90
12967;DHT22;6548;49.996;8.238;2022-08-19T03:40:24;20.30;99.90
12967;DHT22;6548;49.996;8.238;2022-08-19T03:42:50;19.80;99.90
12967;DHT22;6548;49.996;8.238;2022-08-19T03:45:16;19.80;99.90
12967;DHT22;6548;49.996;8.238;2022-08-19T03:47:41;19.80;99.90
12967;DHT22;6548;49.996;8.238;2022-08-19T03:50:07;20.00;99.90
12967;DHT22;6548;49.996;8.238;2022-08-19T03:52:34;19.70;99.90
12967;DHT22;6548;49.996;8.238;2022-08-19T03:55:01;20.00;99.90
12967;DHT22;6548;49.996;8.238;2022-08-19T03:57:27;19.70;99.90
12967;DHT22;6548;49.996;8.238;2022-08-19T03:59:53;19.70;99.90
12967;DHT22;6548;49.996;8.238;2022-08-19T04:02:18;19.70;99.90
12967;DHT22;6548;49.996;8.238;2022-08-19T04:04:44;19.70;99.90
12967;DHT22;6548;49.996;8.238;2022-08-19T04:07:11;20.20;99.90
12967;DHT22;6548;49.996;8.238;2022-08-19T04:09:38;19.60;99.90
12967;DHT22;6548;49.996;8.238;2022-08-19T04:12:05;19.70;99.90
12967;DHT22;6548;49.996;8.238;2022-08-19T04:14:31;19.70;99.90
12967;DHT22;6548;49.996;8.238;2022-08-19T04:16:58;19.60;99.90
12967;DHT22;6548;49.996;8.238;2022-08-19T04:19:25;20.30;99.90
12967;DHT22;6548;49.996;8.238;2022-08-19T04:21:52;19.60;99.90
12967;DHT22;6548;49.996;8.238;2022-08-19T04:24:19;19.60;99.90
12967;DHT22;6548;49.996;8.238;2022-08-19T04:26:46;19.60;99.90
12967;DHT22;6548;49.996;8.238;2022-08-19T04:29:15;20.10;99.90
12967;DHT22;6548;49.996;8.238;2022-08-19T04:31:43;19.50;99.90
12967;DHT22;6548;49.996;8.238;2022-08-19T04:34:10;19.40;99.90
12967;DHT22;6548;49.996;8.238;2022-08-19T04:36:38;19.50;99.90
12967;DHT22;6548;49.996;8.238;2022-08-19T04:39:08;19.40;99.90
12967;DHT22;6548;49.996;8.238;2022-08-19T04:41:34;19.40;99.90
12967;DHT22;6548;49.996;8.238;2022-08-19T04:44:19;19.40;99.90
12967;DHT22;6548;49.996;8.238;2022-08-19T04:46:46;19.40;99.90
12967;DHT22;6548;49.996;8.238;2022-08-19T04:49:14;19.40;99.90
12967;DHT22;6548;49.996;8.238;2022-08-19T04:51:41;19.30;99.90
12967;DHT22;6548;49.996;8.238;2022-08-19T04:54:08;19.30;99.90
12967;DHT22;6548;49.996;8.238;2022-08-19T04:56:34;19.40;99.90
12967;DHT22;6548;49.996;8.238;2022-08-19T04:59:00;19.30;99.90
12967;DHT22;6548;49.996;8.238;2022-08-19T05:01:30;20.90;99.90
12967;DHT22;6548;49.996;8.238;2022-08-19T05:03:59;19.40;99.90
12967;DHT22;6548;49.996;8.238;2022-08-19T05:06:25;18.20;99.90
12967;DHT22;6548;49.996;8.238;2022-08-19T05:08:51;19.70;99.90
12967;DHT22;6548;49.996;8.238;2022-08-19T05:11:19;19.80;99.90
12967;DHT22;6548;49.996;8.238;2022-08-19T05:13:46;19.50;99.90
12967;DHT22;6548;49.996;8.238;2022-08-19T05:16:15;19.50;99.90
12967;DHT22;6548;49.996;8.238;2022-08-19T05:18:43;19.60;99.90
12967;DHT22;6548;49.996;8.238;2022-08-19T05:21:28;20.10;99.90
12967;DHT22;6548;49.996;8.238;2022-08-19T05:24:13;19.70;99.90
12967;DHT22;6548;49.996;8.238;2022-08-19T05:26:43;19.80;99.90
12967;DHT22;6548;49.996;8.238;2022-08-19T05:29:12;19.90;99.90
12967;DHT22;6548;49.996;8.238;2022-08-19T05:31:39;20.00;99.90
12967;DHT22;6548;49.996;8.238;2022-08-19T05:34:05;20.00;99.90
12967;DHT22;6548;49.996;8.238;2022-08-19T05:36:36;20.70;99.90
12967;DHT22;6548;49.996;8.238;2022-08-19T05:39:05;20.20;99.90
12967;DHT22;6548;49.996;8.238;2022-08-19T05:41:31;20.70;99.90
12967;DHT22;6548;49.996;8.238;2022-08-19T05:43:58;20.40;99.90
12967;DHT22;6548;49.996;8.238;2022-08-19T05:46:24;20.50;99.90
12967;DHT22;6548;49.996;8.238;2022-08-19T05:48:49;20.70;99.90
12967;DHT22;6548;49.996;8.238;2022-08-19T05:51:15;20.80;99.90
12967;DHT22;6548;49.996;8.238;2022-08-19T05:53:41;21.00;99.90
12967;DHT22;6548;49.996;8.238;2022-08-19T05:56:09;21.00;99.90
12967;DHT22;6548;49.996;8.238;2022-08-19T05:58:36;21.20;99.90
12967;DHT22;6548;49.996;8.238;2022-08-19T06:01:02;21.30;99.90
12967;DHT22;6548;49.996;8.238;2022-08-19T06:03:32;21.50;99.90
12967;DHT22;6548;49.996;8.238;2022-08-19T06:05:58;21.70;99.90
12967;DHT22;6548;49.996;8.238;2022-08-19T06:08:25;21.60;99.90
12967;DHT22;6548;49.996;8.238;2022-08-19T06:10:51;21.80;99.90
12967;DHT22;6548;49.996;8.238;2022-08-19T06:13:16;22.00;99.90
12967;DHT22;6548;49.996;8.238;2022-08-19T06:15:44;22.00;99.90
12967;DHT22;6548;49.996;8.238;2022-08-19T06:18:12;21.80;99.90
12967;DHT22;6548;49.996;8.238;2022-08-19T06:20:38;21.90;99.90
12967;DHT22;6548;49.996;8.238;2022-08-19T06:23:03;22.00;99.90
12967;DHT22;6548;49.996;8.238;2022-08-19T06:25:29;22.00;99.90
12967;DHT22;6548;49.996;8.238;2022-08-19T06:27:55;22.20;99.90
12967;DHT22;6548;49.996;8.238;2022-08-19T06:30:21;22.60;99.90
12967;DHT22;6548;49.996;8.238;2022-08-19T06:32:46;23.00;99.90
12967;DHT22;6548;49.996;8.238;2022-08-19T06:35:12;23.30;99.90
12967;DHT22;6548;49.996;8.238;2022-08-19T06:37:39;23.40;99.90
12967;DHT22;6548;49.996;8.238;2022-08-19T06:40:06;23.50;99.90
12967;DHT22;6548;49.996;8.238;2022-08-19T06:42:34;23.60;99.90
12967;DHT22;6548;49.996;8.238;2022-08-19T06:45:00;23.60;99.90
12967;DHT22;6548;49.996;8.238;2022-08-19T06:47:28;23.80;99.90
12967;DHT22;6548;49.996;8.238;2022-08-19T06:49:58;23.90;99.90
12967;DHT22;6548;49.996;8.238;2022-08-19T06:52:33;24.10;99.90
12967;DHT22;6548;49.996;8.238;2022-08-19T06:54:59;24.20;99.90
12967;DHT22;6548;49.996;8.238;2022-08-19T06:57:26;24.50;99.90
12967;DHT22;6548;49.996;8.238;2022-08-19T06:59:52;24.90;99.90
12967;DHT22;6548;49.996;8.238;2022-08-19T07:02:18;25.10;99.90
12967;DHT22;6548;49.996;8.238;2022-08-19T07:04:44;25.70;99.90
12967;DHT22;6548;49.996;8.238;2022-08-19T07:07:13;25.80;99.90
12967;DHT22;6548;49.996;8.238;2022-08-19T07:09:41;26.20;99.90
12967;DHT22;6548;49.996;8.238;2022-08-19T07:12:10;25.70;99.90
12967;DHT22;6548;49.996;8.238;2022-08-19T07:14:37;25.70;99.90
12967;DHT22;6548;49.996;8.238;2022-08-19T07:17:05;25.80;99.90
12967;DHT22;6548;49.996;8.238;2022-08-19T07:19:31;25.90;99.90
12967;DHT22;6548;49.996;8.238;2022-08-19T07:21:58;26.00;99.90
12967;DHT22;6548;49.996;8.238;2022-08-19T07:24:27;25.70;99.90
12967;DHT22;6548;49.996;8.238;2022-08-19T07:26:55;26.00;99.90
12967;DHT22;6548;49.996;8.238;2022-08-19T07:29:22;26.00;99.90
12967;DHT22;6548;49.996;8.238;2022-08-19T07:31:49;26.30;99.90
12967;DHT22;6548;49.996;8.238;2022-08-19T07:34:15;26.30;99.90
12967;DHT22;6548;49.996;8.238;2022-08-19T07:36:42;26.40;99.90
12967;DHT22;6548;49.996;8.238;2022-08-19T07:39:17;26.60;99.90
12967;DHT22;6548;49.996;8.238;2022-08-19T07:41:51;27.00;99.90
12967;DHT22;6548;49.996;8.238;2022-08-19T07:44:18;27.10;99.90
12967;DHT22;6548;49.996;8.238;2022-08-19T07:46:48;26.50;99.90
12967;DHT22;6548;49.996;8.238;2022-08-19T07:49:15;26.80;99.90
12967;DHT22;6548;49.996;8.238;2022-08-19T07:52:10;26.60;99.90
12967;DHT22;6548;49.996;8.238;2022-08-19T07:54:37;26.60;99.90
12967;DHT22;6548;49.996;8.238;2022-08-19T07:57:04;26.80;99.90
12967;DHT22;6548;49.996;8.238;2022-08-19T07:59:31;26.80;99.90
12967;DHT22;6548;49.996;8.238;2022-08-19T08:01:57;27.00;99.90
12967;DHT22;6548;49.996;8.238;2022-08-19T08:04:25;27.20;99.90
12967;DHT22;6548;49.996;8.238;2022-08-19T08:07:09;27.30;99.90
12967;DHT22;6548;49.996;8.238;2022-08-19T08:09:53;27.40;99.90
12967;DHT22;6548;49.996;8.238;2022-08-19T08:12:29;26.90;99.90
12967;DHT22;6548;49.996;8.238;2022-08-19T08:14:58;26.80;99.90
12967;DHT22;6548;49.996;8.238;2022-08-19T08:17:26;26.90;99.90
12967;DHT22;6548;49.996;8.238;2022-08-19T08:19:53;26.60;99.90
12967;DHT22;6548;49.996;8.238;2022-08-19T08:22:21;26.70;99.90
12967;DHT22;6548;49.996;8.238;2022-08-19T08:25:11;26.70;99.90
12967;DHT22;6548;49.996;8.238;2022-08-19T08:27:40;26.80;99.90
12967;DHT22;6548;49.996;8.238;2022-08-19T08:30:08;27.10;99.90
12967;DHT22;6548;49.996;8.238;2022-08-19T08:32:36;27.20;99.90
12967;DHT22;6548;49.996;8.238;2022-08-19T08:35:06;27.70;99.90
12967;DHT22;6548;49.996;8.238;2022-08-19T08:37:32;27.50;99.90
12967;DHT22;6548;49.996;8.238;2022-08-19T08:39:58;27.70;99.90
12967;DHT22;6548;49.996;8.238;2022-08-19T08:42:32;27.40;99.90
12967;DHT22;6548;49.996;8.238;2022-08-19T08:45:03;27.60;99.90
12967;DHT22;6548;49.996;8.238;2022-08-19T08:47:34;27.50;99.90
12967;DHT22;6548;49.996;8.238;2022-08-19T08:50:12;27.50;99.90
12967;DHT22;6548;49.996;8.238;2022-08-19T08:52:44;27.00;99.90
12967;DHT22;6548;49.996;8.238;2022-08-19T08:55:29;27.20;99.90
12967;DHT22;6548;49.996;8.238;2022-08-19T08:58:04;26.80;99.90
12967;DHT22;6548;49.996;8.238;2022-08-19T09:00:37;27.20;99.90
12967;DHT22;6548;49.996;8.238;2022-08-19T09:03:09;28.00;99.90
12967;DHT22;6548;49.996;8.238;2022-08-19T09:11:09;28.70;99.90
12967;DHT22;6548;49.996;8.238;2022-08-19T09:14:07;29.00;99.90
12967;DHT22;6548;49.996;8.238;2022-08-19T09:16:34;29.00;99.90
12967;DHT22;6548;49.996;8.238;2022-08-19T09:19:03;29.10;99.90
12967;DHT22;6548;49.996;8.238;2022-08-19T09:21:29;29.70;99.90
12967;DHT22;6548;49.996;8.238;2022-08-19T09:23:55;29.80;99.90
12967;DHT22;6548;49.996;8.238;2022-08-19T09:26:22;29.60;99.90
12967;DHT22;6548;49.996;8.238;2022-08-19T09:28:49;30.00;99.90
12967;DHT22;6548;49.996;8.238;2022-08-19T09:31:18;30.50;99.90
12967;DHT22;6548;49.996;8.238;2022-08-19T09:33:44;30.70;99.90
12967;DHT22;6548;49.996;8.238;2022-08-19T09:36:12;30.50;99.90
12967;DHT22;6548;49.996;8.238;2022-08-19T09:38:39;30.70;99.90
12967;DHT22;6548;49.996;8.238;2022-08-19T09:41:13;30.70;99.90
12967;DHT22;6548;49.996;8.238;2022-08-19T09:43:40;29.60;99.90
12967;DHT22;6548;49.996;8.238;2022-08-19T09:46:06;29.50;99.90
12967;DHT22;6548;49.996;8.238;2022-08-19T09:48:35;29.60;99.90
12967;DHT22;6548;49.996;8.238;2022-08-19T09:51:09;29.30;99.90
12967;DHT22;6548;49.996;8.238;2022-08-19T09:53:36;29.30;99.90
12967;DHT22;6548;49.996;8.238;2022-08-19T09:56:04;29.70;99.90
12967;DHT22;6548;49.996;8.238;2022-08-19T09:58:29;30.00;99.90
12967;DHT22;6548;49.996;8.238;2022-08-19T10:00:56;30.00;99.90
12967;DHT22;6548;49.996;8.238;2022-08-19T10:03:24;29.40;99.90
12967;DHT22;6548;49.996;8.238;2022-08-19T10:05:50;29.90;99.90
12967;DHT22;6548;49.996;8.238;2022-08-19T10:08:25;30.10;99.90
12967;DHT22;6548;49.996;8.238;2022-08-19T10:10:51;30.30;99.90
12967;DHT22;6548;49.996;8.238;2022-08-19T10:13:19;30.00;99.90
12967;DHT22;6548;49.996;8.238;2022-08-19T10:15:49;30.50;99.90
12967;DHT22;6548;49.996;8.238;2022-08-19T10:18:24;30.70;99.90
12967;DHT22;6548;49.996;8.238;2022-08-19T10:20:51;30.50;99.90
12967;DHT22;6548;49.996;8.238;2022-08-19T10:23:19;30.50;99.90
12967;DHT22;6548;49.996;8.238;2022-08-19T10:25:45;31.20;99.90
12967;DHT22;6548;49.996;8.238;2022-08-19T10:28:11;30.80;99.90
12967;DHT22;6548;49.996;8.238;2022-08-19T10:30:40;30.40;99.90
12967;DHT22;6548;49.996;8.238;2022-08-19T10:33:06;30.20;99.90
12967;DHT22;6548;49.996;8.238;2022-08-19T10:35:32;30.40;99.90
12967;DHT22;6548;49.996;8.238;2022-08-19T10:37:57;29.90;99.90
12967;DHT22;6548;49.996;8.238;2022-08-19T10:40:27;30.10;99.90
12967;DHT22;6548;49.996;8.238;2022-08-19T10:42:54;30.60;99.90
12967;DHT22;6548;49.996;8.238;2022-08-19T10:45:21;31.20;99.90
12967;DHT22;6548;49.996;8.238;2022-08-19T10:47:48;31.80;99.90
12967;DHT22;6548;49.996;8.238;2022-08-19T10:50:14;31.20;99.90
12967;DHT22;6548;49.996;8.238;2022-08-19T10:53:06;30.70;99.90
12967;DHT22;6548;49.996;8.238;2022-08-19T10:55:35;31.30;99.90
12967;DHT22;6548;49.996;8.238;2022-08-19T10:58:21;31.50;99.90
12967;DHT22;6548;49.996;8.238;2022-08-19T11:00:56;31.10;99.90
12967;DHT22;6548;49.996;8.238;2022-08-19T11:03:22;31.60;99.90
12967;DHT22;6548;49.996;8.238;2022-08-19T11:06:04;31.60;99.90
12967;DHT22;6548;49.996;8.238;2022-08-19T11:08:31;31.50;99.90
12967;DHT22;6548;49.996;8.238;2022-08-19T11:11:00;31.60;99.90
12967;DHT22;6548;49.996;8.238;2022-08-19T11:13:31;31.90;99.90
12967;DHT22;6548;49.996;8.238;2022-08-19T11:16:04;32.10;99.90
12967;DHT22;6548;49.996;8.238;2022-08-19T11:18:32;32.60;99.90
12967;DHT22;6548;49.996;8.238;2022-08-19T11:21:14;32.90;99.90
12967;DHT22;6548;49.996;8.238;2022-08-19T11:23:43;33.00;99.90
12967;DHT22;6548;49.996;8.238;2022-08-19T11:26:09;32.80;99.90
12967;DHT22;6548;49.996;8.238;2022-08-19T11:28:35;33.20;99.90
12967;DHT22;6548;49.996;8.238;2022-08-19T11:31:01;33.50;99.90
12967;DHT22;6548;49.996;8.238;2022-08-19T11:33:29;33.90;99.90
12967;DHT22;6548;49.996;8.238;2022-08-19T11:35:57;34.20;99.90
12967;DHT22;6548;49.996;8.238;2022-08-19T11:38:24;33.50;99.90
12967;DHT22;6548;49.996;8.238;2022-08-19T11:40:58;32.50;99.90
12967;DHT22;6548;49.996;8.238;2022-08-19T11:43:24;32.10;99.90
12967;DHT22;6548;49.996;8.238;2022-08-19T11:45:55;32.60;99.90
12967;DHT22;6548;49.996;8.238;2022-08-19T11:48:21;32.80;99.90
12967;DHT22;6548;49.996;8.238;2022-08-19T11:50:52;32.30;99.90
12967;DHT22;6548;49.996;8.238;2022-08-19T11:53:20;32.40;99.90
12967;DHT22;6548;49.996;8.238;2022-08-19T11:55:49;32.90;99.90
12967;DHT22;6548;49.996;8.238;2022-08-19T11:58:16;32.60;99.90
12967;DHT22;6548;49.996;8.238;2022-08-19T12:00:43;32.80;99.90
12967;DHT22;6548;49.996;8.238;2022-08-19T12:03:11;33.30;99.90
12967;DHT22;6548;49.996;8.238;2022-08-19T12:05:39;33.20;99.90
12967;DHT22;6548;49.996;8.238;2022-08-19T12:08:05;32.90;99.90
12967;DHT22;6548;49.996;8.238;2022-08-19T12:10:31;33.30;99.90
12967;DHT22;6548;49.996;8.238;2022-08-19T12:12:57;33.00;99.90
12967;DHT22;6548;49.996;8.238;2022-08-19T12:15:22;33.90;99.90
12967;DHT22;6548;49.996;8.238;2022-08-19T12:17:48;33.90;99.90
12967;DHT22;6548;49.996;8.238;2022-08-19T12:20:14;34.30;99.90
12967;DHT22;6548;49.996;8.238;2022-08-19T12:22:42;33.70;99.90
12967;DHT22;6548;49.996;8.238;2022-08-19T12:25:12;33.10;99.90
12967;DHT22;6548;49.996;8.238;2022-08-19T12:27:38;33.70;99.90
12967;DHT22;6548;49.996;8.238;2022-08-19T12:30:06;33.20;99.90
12967;DHT22;6548;49.996;8.238;2022-08-19T12:32:32;33.50;99.90
12967;DHT22;6548;49.996;8.238;2022-08-19T12:34:57;34.20;99.90
12967;DHT22;6548;49.996;8.238;2022-08-19T12:37:23;34.10;99.90
12967;DHT22;6548;49.996;8.238;2022-08-19T12:39:48;33.70;99.90
12967;DHT22;6548;49.996;8.238;2022-08-19T12:42:14;33.80;99.90
12967;DHT22;6548;49.996;8.238;2022-08-19T12:44:42;34.30;99.90
12967;DHT22;6548;49.996;8.238;2022-08-19T12:47:09;34.80;99.90
12967;DHT22;6548;49.996;8.238;2022-08-19T12:49:35;34.50;99.90
12967;DHT22;6548;49.996;8.238;2022-08-19T12:52:04;33.90;99.90
12967;DHT22;6548;49.996;8.238;2022-08-19T12:54:30;32.80;99.90
12967;DHT22;6548;49.996;8.238;2022-08-19T12:56:56;33.00;99.90
12967;DHT22;6548;49.996;8.238;2022-08-19T12:59:22;33.40;99.90
12967;DHT22;6548;49.996;8.238;2022-08-19T13:01:47;33.90;99.90
12967;DHT22;6548;49.996;8.238;2022-08-19T13:04:13;33.00;99.90
12967;DHT22;6548;49.996;8.238;2022-08-19T13:06:39;32.40;99.90
12967;DHT22;6548;49.996;8.238;2022-08-19T13:09:05;32.10;99.90
12967;DHT22;6548;49.996;8.238;2022-08-19T13:11:30;31.50;99.90
12967;DHT22;6548;49.996;8.238;2022-08-19T13:13:59;31.00;99.90
12967;DHT22;6548;49.996;8.238;2022-08-19T13:16:24;30.60;99.90
12967;DHT22;6548;49.996;8.238;2022-08-19T13:18:51;30.90;99.90
12967;DHT22;6548;49.996;8.238;2022-08-19T13:21:17;30.90;99.90
12967;DHT22;6548;49.996;8.238;2022-08-19T13:23:45;31.70;99.90
12967;DHT22;6548;49.996;8.238;2022-08-19T13:26:12;32.40;99.90
12967;DHT22;6548;49.996;8.238;2022-08-19T13:28:39;33.00;99.90
12967;DHT22;6548;49.996;8.238;2022-08-19T13:31:25;32.60;99.90
12967;DHT22;6548;49.996;8.238;2022-08-19T13:34:11;33.10;99.90
12967;DHT22;6548;49.996;8.238;2022-08-19T13:36:37;33.90;99.90
12967;DHT22;6548;49.996;8.238;2022-08-19T13:39:04;33.20;99.90
12967;DHT22;6548;49.996;8.238;2022-08-19T13:41:30;32.80;99.90
12967;DHT22;6548;49.996;8.238;2022-08-19T13:43:56;32.80;99.90
12967;DHT22;6548;49.996;8.238;2022-08-19T13:46:21;33.50;99.90
12967;DHT22;6548;49.996;8.238;2022-08-19T13:48:49;33.50;99.90
12967;DHT22;6548;49.996;8.238;2022-08-19T13:51:16;34.40;99.10
12967;DHT22;6548;49.996;8.238;2022-08-19T13:53:42;33.60;98.20
12967;DHT22;6548;49.996;8.238;2022-08-19T13:56:15;34.20;97.40
12967;DHT22;6548;49.996;8.238;2022-08-19T13:58:40;34.10;97.40
12967;DHT22;6548;49.996;8.238;2022-08-19T14:01:06;34.70;96.30
12967;DHT22;6548;49.996;8.238;2022-08-19T14:03:32;34.70;96.00
12967;DHT22;6548;49.996;8.238;2022-08-19T14:05:58;34.90;96.00
12967;DHT22;6548;49.996;8.238;2022-08-19T14:08:24;35.10;94.50
12967;DHT22;6548;49.996;8.238;2022-08-19T14:10:51;34.60;94.30
12967;DHT22;6548;49.996;8.238;2022-08-19T14:13:19;33.90;96.40
12967;DHT22;6548;49.996;8.238;2022-08-19T14:15:45;34.50;96.80
12967;DHT22;6548;49.996;8.238;2022-08-19T14:18:13;34.30;96.30
12967;DHT22;6548;49.996;8.238;2022-08-19T14:20:39;34.10;96.40
12967;DHT22;6548;49.996;8.238;2022-08-19T14:23:04;34.50;96.10
12967;DHT22;6548;49.996;8.238;2022-08-19T14:25:33;34.00;95.60
12967;DHT22;6548;49.996;8.238;2022-08-19T14:27:59;33.70;95.60
12967;DHT22;6548;49.996;8.238;2022-08-19T14:30:28;33.60;95.60
12967;DHT22;6548;49.996;8.238;2022-08-19T14:32:55;33.60;95.80
12967;DHT22;6548;49.996;8.238;2022-08-19T14:35:21;33.20;95.40
12967;DHT22;6548;49.996;8.238;2022-08-19T14:37:48;33.70;95.30
12967;DHT22;6548;49.996;8.238;2022-08-19T14:40:17;33.40;95.70
12967;DHT22;6548;49.996;8.238;2022-08-19T14:42:43;33.40;96.50
12967;DHT22;6548;49.996;8.238;2022-08-19T14:45:11;33.00;96.50
12967;DHT22;6548;49.996;8.238;2022-08-19T14:47:37;33.20;97.10
12967;DHT22;6548;49.996;8.238;2022-08-19T14:50:08;33.70;96.20
12967;DHT22;6548;49.996;8.238;2022-08-19T14:52:34;33.40;96.20
12967;DHT22;6548;49.996;8.238;2022-08-19T14:55:00;32.60;96.50
12967;DHT22;6548;49.996;8.238;2022-08-19T14:57:25;32.90;96.70
12967;DHT22;6548;49.996;8.238;2022-08-19T14:59:51;33.20;96.30
12967;DHT22;6548;49.996;8.238;2022-08-19T15:02:16;32.40;96.70
12967;DHT22;6548;49.996;8.238;2022-08-19T15:04:42;32.50;97.50
12967;DHT22;6548;49.996;8.238;2022-08-19T15:07:09;32.50;97.60
12967;DHT22;6548;49.996;8.238;2022-08-19T15:09:35;32.60;98.00
12967;DHT22;6548;49.996;8.238;2022-08-19T15:12:01;32.80;97.80
12967;DHT22;6548;49.996;8.238;2022-08-19T15:14:28;33.00;97.90
12967;DHT22;6548;49.996;8.238;2022-08-19T15:17:00;33.30;97.20
12967;DHT22;6548;49.996;8.238;2022-08-19T15:19:26;33.80;96.70
12967;DHT22;6548;49.996;8.238;2022-08-19T15:21:55;33.50;96.70
12967;DHT22;6548;49.996;8.238;2022-08-19T15:24:21;33.50;96.40
12967;DHT22;6548;49.996;8.238;2022-08-19T15:26:47;33.40;96.60
12967;DHT22;6548;49.996;8.238;2022-08-19T15:29:13;33.10;96.70
12967;DHT22;6548;49.996;8.238;2022-08-19T15:31:41;33.10;96.30
12967;DHT22;6548;49.996;8.238;2022-08-19T15:34:06;33.00;96.40
12967;DHT22;6548;49.996;8.238;2022-08-19T15:36:32;33.20;96.70
12967;DHT22;6548;49.996;8.238;2022-08-19T15:39:00;33.30;96.20
12967;DHT22;6548;49.996;8.238;2022-08-19T15:41:28;33.70;96.20
12967;DHT22;6548;49.996;8.238;2022-08-19T15:43:58;33.60;96.00
12967;DHT22;6548;49.996;8.238;2022-08-19T15:46:27;33.30;96.40
12967;DHT22;6548;49.996;8.238;2022-08-19T15:48:54;32.90;96.80
12967;DHT22;6548;49.996;8.238;2022-08-19T15:51:20;33.00;96.60
12967;DHT22;6548;49.996;8.238;2022-08-19T15:53:46;33.10;96.90
12967;DHT22;6548;49.996;8.238;2022-08-19T15:56:12;33.00;96.70